createdAt,value
2022-12-15T00:00:43.164Z,95.43
2022-12-15T00:01:43.093Z,95.23
2022-12-15T00:02:43.210Z,95.12
2022-12-15T00:03:43.223Z,95.12
2022-12-15T00:04:43.093Z,95.12
2022-12-15T00:05:43.033Z,95.12
2022-12-15T00:06:43.106Z,95.33
2022-12-15T00:07:43.005Z,95.43
2022-12-15T00:08:42.999Z,95.43
2022-12-15T00:09:42.993Z,95.33
2022-12-15T00:10:42.963Z,95.33
2022-12-15T00:11:42.951Z,95.43
2022-12-15T00:12:42.963Z,95.75
2022-12-15T00:13:42.914Z,95.85
2022-12-15T00:14:42.941Z,95.75
2022-12-15T00:15:42.933Z,95.54
2022-12-15T00:16:42.887Z,95.43
2022-12-15T00:17:42.868Z,95.33
2022-12-15T00:18:42.856Z,95.43
2022-12-15T00:19:42.867Z,95.64
2022-12-15T00:20:42.827Z,95.54
2022-12-15T00:21:42.819Z,95.54
2022-12-15T00:22:42.823Z,95.64
2022-12-15T00:23:42.786Z,95.64
2022-12-15T00:24:42.811Z,95.64
2022-12-15T00:25:42.766Z,95.64
2022-12-15T00:26:42.762Z,95.75
2022-12-15T00:27:42.767Z,95.64
2022-12-15T00:28:42.728Z,95.64
2022-12-15T00:29:42.712Z,95.54
2022-12-15T00:30:42.699Z,95.43
2022-12-15T00:31:42.746Z,95.43
2022-12-15T00:32:42.694Z,95.33
2022-12-15T00:33:42.648Z,95.33
2022-12-15T00:34:42.649Z,95.23
2022-12-15T00:35:42.655Z,95.33
2022-12-15T00:36:42.654Z,95.54
2022-12-15T00:37:42.621Z,95.54
2022-12-15T00:38:42.594Z,95.54
2022-12-15T00:39:42.572Z,95.54
2022-12-15T00:40:42.583Z,95.64
2022-12-15T00:41:42.584Z,95.64
2022-12-15T00:42:42.574Z,95.54
2022-12-15T00:43:42.513Z,95.43
2022-12-15T00:44:42.518Z,95.33
2022-12-15T00:45:42.490Z,95.43
2022-12-15T00:46:42.579Z,95.33
2022-12-15T00:47:42.459Z,95.23
2022-12-15T00:48:42.464Z,95.23
2022-12-15T00:49:42.441Z,95.23
2022-12-15T00:50:42.458Z,95.23
2022-12-15T00:51:42.454Z,95.33
2022-12-15T00:52:42.421Z,95.43
2022-12-15T00:53:42.397Z,95.75
2022-12-15T00:54:42.398Z,95.85
2022-12-15T00:55:42.364Z,95.85
2022-12-15T00:56:42.374Z,95.95
2022-12-15T00:57:42.343Z,95.95
2022-12-15T00:58:42.355Z,95.95
2022-12-15T00:59:42.313Z,95.95
2022-12-15T01:00:42.300Z,95.95
2022-12-15T01:01:42.463Z,95.95
2022-12-15T01:02:42.461Z,95.95
2022-12-15T01:03:42.396Z,96.06
2022-12-15T01:04:42.253Z,95.95
2022-12-15T01:05:42.222Z,95.95
2022-12-15T01:06:42.260Z,96.06
2022-12-15T01:07:42.201Z,96.16
2022-12-15T01:08:42.207Z,96.16
2022-12-15T01:09:42.213Z,96.06
2022-12-15T01:10:42.196Z,95.95
2022-12-15T01:11:42.186Z,96.06
2022-12-15T01:12:42.143Z,95.95
2022-12-15T01:13:42.115Z,96.26
2022-12-15T01:14:42.113Z,96.26
2022-12-15T01:15:42.116Z,96.58
2022-12-15T01:16:42.229Z,96.69
2022-12-15T01:17:42.062Z,96.79
2022-12-15T01:18:42.101Z,97.00
2022-12-15T01:19:42.049Z,97.14
2022-12-15T01:20:42.040Z,97.14
2022-12-15T01:21:42.043Z,97.14
2022-12-15T01:22:42.014Z,97.46
2022-12-15T01:23:42.029Z,97.88
2022-12-15T01:24:41.988Z,97.98
2022-12-15T01:25:41.970Z,97.98
2022-12-15T01:26:42.003Z,98.08
2022-12-15T01:27:41.947Z,98.08
2022-12-15T01:28:41.942Z,98.19
2022-12-15T01:29:41.916Z,98.19
2022-12-15T01:30:41.912Z,98.19
2022-12-15T01:31:42.004Z,98.19
2022-12-15T01:32:45.998Z,98.08
2022-12-15T01:33:41.894Z,98.08
2022-12-15T01:34:41.836Z,98.08
2022-12-15T01:35:41.847Z,97.98
2022-12-15T01:36:41.850Z,97.98
2022-12-15T01:37:41.839Z,97.88
2022-12-15T01:38:41.803Z,97.88
2022-12-15T01:39:41.779Z,97.88
2022-12-15T01:40:41.759Z,97.77
2022-12-15T01:41:41.796Z,97.67
2022-12-15T01:42:41.728Z,97.67
2022-12-15T01:43:41.745Z,97.77
2022-12-15T01:44:41.714Z,97.67
2022-12-15T01:45:41.711Z,97.67
2022-12-15T01:46:41.772Z,97.56
2022-12-15T01:47:41.681Z,97.56
2022-12-15T01:48:41.655Z,97.56
2022-12-15T01:49:41.646Z,97.56
2022-12-15T01:50:41.630Z,97.46
2022-12-15T01:51:41.656Z,97.56
2022-12-15T01:52:41.605Z,97.67
2022-12-15T01:53:41.631Z,97.77
2022-12-15T01:54:41.578Z,97.77
2022-12-15T01:55:41.576Z,97.67
2022-12-15T01:56:41.555Z,97.67
2022-12-15T01:57:41.574Z,97.56
2022-12-15T01:58:41.526Z,97.46
2022-12-15T01:59:41.566Z,97.46
2022-12-15T02:00:41.572Z,97.46
2022-12-15T02:01:41.577Z,97.46
2022-12-15T02:02:41.634Z,97.46
2022-12-15T02:03:41.475Z,97.46
2022-12-15T02:04:41.476Z,97.46
2022-12-15T02:05:41.434Z,97.35
2022-12-15T02:06:41.424Z,97.25
2022-12-15T02:07:41.410Z,97.14
2022-12-15T02:08:41.391Z,97.14
2022-12-15T02:09:41.389Z,97.04
2022-12-15T02:10:41.398Z,96.94
2022-12-15T02:11:41.362Z,97.04
2022-12-15T02:12:41.341Z,97.04
2022-12-15T02:13:41.367Z,97.04
2022-12-15T02:14:41.307Z,97.04
2022-12-15T02:15:41.333Z,96.94
2022-12-15T02:16:41.358Z,96.94
2022-12-15T02:17:41.296Z,96.94
2022-12-15T02:18:41.262Z,96.94
2022-12-15T02:19:41.290Z,96.83
2022-12-15T02:20:41.226Z,96.83
2022-12-15T02:21:41.228Z,96.83
2022-12-15T02:22:41.203Z,96.83
2022-12-15T02:23:41.231Z,96.83
2022-12-15T02:24:41.210Z,96.73
2022-12-15T02:25:41.187Z,96.83
2022-12-15T02:26:41.180Z,96.83
2022-12-15T02:27:41.154Z,96.94
2022-12-15T02:28:41.163Z,96.94
2022-12-15T02:29:41.140Z,97.04
2022-12-15T02:30:41.092Z,97.25
2022-12-15T02:31:41.212Z,97.25
2022-12-15T02:32:41.079Z,97.14
2022-12-15T02:33:41.070Z,97.04
2022-12-15T02:34:41.050Z,96.94
2022-12-15T02:35:41.044Z,96.83
2022-12-15T02:36:41.049Z,96.83
2022-12-15T02:37:41.057Z,97.04
2022-12-15T02:38:40.995Z,97.04
2022-12-15T02:39:40.990Z,97.04
2022-12-15T02:40:40.997Z,97.04
2022-12-15T02:41:41.084Z,96.83
2022-12-15T02:42:40.972Z,96.73
2022-12-15T02:43:40.937Z,96.62
2022-12-15T02:44:40.912Z,96.73
2022-12-15T02:45:40.931Z,96.73
2022-12-15T02:46:40.897Z,96.73
2022-12-15T02:47:40.919Z,96.94
2022-12-15T02:48:40.872Z,97.04
2022-12-15T02:49:40.877Z,97.14
2022-12-15T02:50:40.831Z,97.14
2022-12-15T02:51:40.831Z,97.35
2022-12-15T02:52:40.876Z,97.46
2022-12-15T02:53:40.807Z,97.67
2022-12-15T02:54:40.785Z,97.77
2022-12-15T02:55:40.804Z,97.88
2022-12-15T02:56:40.779Z,97.98
2022-12-15T02:57:40.773Z,97.98
2022-12-15T02:58:40.730Z,98.08
2022-12-15T02:59:40.735Z,98.19
2022-12-15T03:00:40.798Z,98.29
2022-12-15T03:01:40.910Z,98.29
2022-12-15T03:02:40.813Z,98.29
2022-12-15T03:03:40.780Z,98.08
2022-12-15T03:04:40.652Z,97.98
2022-12-15T03:05:40.670Z,97.88
2022-12-15T03:06:40.617Z,97.77
2022-12-15T03:07:40.622Z,97.77
2022-12-15T03:08:40.625Z,97.67
2022-12-15T03:09:40.588Z,97.67
2022-12-15T03:10:40.579Z,97.67
2022-12-15T03:11:40.576Z,97.56
2022-12-15T03:12:40.559Z,97.56
2022-12-15T03:13:40.560Z,97.46
2022-12-15T03:14:40.562Z,97.56
2022-12-15T03:15:40.518Z,97.56
2022-12-15T03:16:40.612Z,97.56
2022-12-15T03:17:40.516Z,97.46
2022-12-15T03:18:40.460Z,97.35
2022-12-15T03:19:40.492Z,97.35
2022-12-15T03:20:40.449Z,97.25
2022-12-15T03:21:40.434Z,97.25
2022-12-15T03:22:40.406Z,97.25
2022-12-15T03:23:40.427Z,97.25
2022-12-15T03:24:40.401Z,97.25
2022-12-15T03:25:40.383Z,97.14
2022-12-15T03:26:40.361Z,97.25
2022-12-15T03:27:40.356Z,97.25
2022-12-15T03:28:40.353Z,97.25
2022-12-15T03:29:40.358Z,97.35
2022-12-15T03:30:40.342Z,97.35
2022-12-15T03:31:40.377Z,97.35
2022-12-15T03:32:40.277Z,97.25
2022-12-15T03:33:40.270Z,97.14
2022-12-15T03:34:40.247Z,97.04
2022-12-15T03:35:40.278Z,97.04
2022-12-15T03:36:40.227Z,97.04
2022-12-15T03:37:40.220Z,97.04
2022-12-15T03:38:40.223Z,97.25
2022-12-15T03:39:40.210Z,97.25
2022-12-15T03:40:40.179Z,97.14
2022-12-15T03:41:40.178Z,97.14
2022-12-15T03:42:40.144Z,97.14
2022-12-15T03:43:40.141Z,97.04
2022-12-15T03:44:40.142Z,97.04
2022-12-15T03:45:40.181Z,96.94
2022-12-15T03:46:40.133Z,96.83
2022-12-15T03:47:40.096Z,96.83
2022-12-15T03:48:40.080Z,96.94
2022-12-15T03:49:40.094Z,97.04
2022-12-15T03:50:40.053Z,96.94
2022-12-15T03:51:40.052Z,96.94
2022-12-15T03:52:40.014Z,97.04
2022-12-15T03:53:40.016Z,97.14
2022-12-15T03:54:40.027Z,97.14
2022-12-15T03:55:39.980Z,97.14
2022-12-15T03:56:39.957Z,97.30
2022-12-15T03:57:39.957Z,97.30
2022-12-15T03:58:39.954Z,97.30
2022-12-15T03:59:39.925Z,97.30
2022-12-15T04:00:39.938Z,97.40
2022-12-15T04:01:40.123Z,97.50
2022-12-15T04:02:40.049Z,97.50
2022-12-15T04:03:39.981Z,97.61
2022-12-15T04:04:39.854Z,97.61
2022-12-15T04:05:39.848Z,97.81
2022-12-15T04:06:39.862Z,97.92
2022-12-15T04:07:39.823Z,98.02
2022-12-15T04:08:39.805Z,98.02
2022-12-15T04:09:39.827Z,98.02
2022-12-15T04:10:39.807Z,98.02
2022-12-15T04:11:39.794Z,98.13
2022-12-15T04:12:39.745Z,98.02
2022-12-15T04:13:39.747Z,97.92
2022-12-15T04:14:39.731Z,97.81
2022-12-15T04:15:39.752Z,97.71
2022-12-15T04:16:39.747Z,97.71
2022-12-15T04:17:39.693Z,97.61
2022-12-15T04:18:39.676Z,97.61
2022-12-15T04:19:39.657Z,97.50
2022-12-15T04:20:39.673Z,97.40
2022-12-15T04:21:39.641Z,97.30
2022-12-15T04:22:39.619Z,97.40
2022-12-15T04:23:39.630Z,97.40
2022-12-15T04:24:39.599Z,97.50
2022-12-15T04:25:39.582Z,97.50
2022-12-15T04:26:39.583Z,97.50
2022-12-15T04:27:39.555Z,97.61
2022-12-15T04:28:39.565Z,97.71
2022-12-15T04:29:39.532Z,97.71
2022-12-15T04:30:39.568Z,97.61
2022-12-15T04:31:39.536Z,97.61
2022-12-15T04:32:39.490Z,97.71
2022-12-15T04:33:39.703Z,97.61
2022-12-15T04:34:39.472Z,97.61
2022-12-15T04:35:39.460Z,97.50
2022-12-15T04:36:39.472Z,97.50
2022-12-15T04:37:39.426Z,97.50
2022-12-15T04:38:43.922Z,97.50
2022-12-15T04:39:39.403Z,97.40
2022-12-15T04:40:39.380Z,97.40
2022-12-15T04:41:39.374Z,97.50
2022-12-15T04:42:39.378Z,97.40
2022-12-15T04:43:39.382Z,97.40
2022-12-15T04:44:39.327Z,97.40
2022-12-15T04:45:39.326Z,97.40
2022-12-15T04:46:39.445Z,97.50
2022-12-15T04:47:39.308Z,97.61
2022-12-15T04:48:39.273Z,97.61
2022-12-15T04:49:39.267Z,97.61
2022-12-15T04:50:39.247Z,97.71
2022-12-15T04:51:39.241Z,97.71
2022-12-15T04:52:39.247Z,97.81
2022-12-15T04:53:39.253Z,97.81
2022-12-15T04:54:39.194Z,97.81
2022-12-15T04:55:39.195Z,97.81
2022-12-15T04:56:39.168Z,97.81
2022-12-15T04:57:39.187Z,97.81
2022-12-15T04:58:39.153Z,97.71
2022-12-15T04:59:39.232Z,97.50
2022-12-15T05:00:39.119Z,97.65
2022-12-15T05:01:39.329Z,97.75
2022-12-15T05:02:39.230Z,97.75
2022-12-15T05:03:39.130Z,97.86
2022-12-15T05:04:39.181Z,97.86
2022-12-15T05:05:39.086Z,97.97
2022-12-15T05:06:39.036Z,98.07
2022-12-15T05:07:39.052Z,98.02
2022-12-15T05:08:39.005Z,97.97
2022-12-15T05:09:39.005Z,97.92
2022-12-15T05:10:39.004Z,97.92
2022-12-15T05:11:38.978Z,97.81
2022-12-15T05:12:38.944Z,97.71
2022-12-15T05:13:38.940Z,97.61
2022-12-15T05:14:38.928Z,97.50
2022-12-15T05:15:38.966Z,97.40
2022-12-15T05:16:38.999Z,97.50
2022-12-15T05:17:41.605Z,97.40
2022-12-15T05:18:38.885Z,97.40
2022-12-15T05:19:38.948Z,97.30
2022-12-15T05:20:38.841Z,97.30
2022-12-15T05:21:38.843Z,97.19
2022-12-15T05:22:38.819Z,97.09
2022-12-15T05:23:38.851Z,97.09
2022-12-15T05:24:38.795Z,97.09
2022-12-15T05:25:38.818Z,96.98
2022-12-15T05:26:38.772Z,96.98
2022-12-15T05:27:38.761Z,96.98
2022-12-15T05:28:38.742Z,96.98
2022-12-15T05:29:38.758Z,96.98
2022-12-15T05:30:38.766Z,96.88
2022-12-15T05:31:38.709Z,96.77
2022-12-15T05:32:38.774Z,96.88
2022-12-15T05:33:38.702Z,96.98
2022-12-15T05:34:38.660Z,96.98
2022-12-15T05:35:38.712Z,97.09
2022-12-15T05:36:38.635Z,96.98
2022-12-15T05:37:38.630Z,96.98
2022-12-15T05:38:38.618Z,96.98
2022-12-15T05:39:38.626Z,96.98
2022-12-15T05:40:38.590Z,97.09
2022-12-15T05:41:38.573Z,97.09
2022-12-15T05:42:38.568Z,97.09
2022-12-15T05:43:38.541Z,97.09
2022-12-15T05:44:38.579Z,97.09
2022-12-15T05:45:38.515Z,96.98
2022-12-15T05:46:38.576Z,96.98
2022-12-15T05:47:38.484Z,97.19
2022-12-15T05:48:38.486Z,97.09
2022-12-15T05:49:38.485Z,97.09
2022-12-15T05:50:38.466Z,96.98
2022-12-15T05:51:38.462Z,97.09
2022-12-15T05:52:38.481Z,97.09
2022-12-15T05:53:38.409Z,97.13
2022-12-15T05:54:38.405Z,97.13
2022-12-15T05:55:38.408Z,97.13
2022-12-15T05:56:38.410Z,97.03
2022-12-15T05:57:38.387Z,97.03
2022-12-15T05:58:44.544Z,97.03
2022-12-15T05:59:38.339Z,97.13
2022-12-15T06:00:38.332Z,97.13
2022-12-15T06:01:38.420Z,97.24
2022-12-15T06:02:38.340Z,97.13
2022-12-15T06:03:38.286Z,97.13
2022-12-15T06:04:38.321Z,97.03
2022-12-15T06:05:38.281Z,96.92
2022-12-15T06:06:38.256Z,96.92
2022-12-15T06:07:38.249Z,96.82
2022-12-15T06:08:38.219Z,96.82
2022-12-15T06:09:38.196Z,96.67
2022-12-15T06:10:38.199Z,96.56
2022-12-15T06:11:38.201Z,96.46
2022-12-15T06:12:38.201Z,96.56
2022-12-15T06:13:38.145Z,96.67
2022-12-15T06:14:38.150Z,96.56
2022-12-15T06:15:38.137Z,96.56
2022-12-15T06:16:44.162Z,96.46
2022-12-15T06:17:38.131Z,96.40
2022-12-15T06:18:38.083Z,96.40
2022-12-15T06:19:38.066Z,96.40
2022-12-15T06:20:38.177Z,96.40
2022-12-15T06:21:38.037Z,96.50
2022-12-15T06:22:38.062Z,96.50
2022-12-15T06:23:38.016Z,96.50
2022-12-15T06:24:38.036Z,96.50
2022-12-15T06:25:37.986Z,96.61
2022-12-15T06:26:38.007Z,96.61
2022-12-15T06:27:37.963Z,96.61
2022-12-15T06:28:37.958Z,96.71
2022-12-15T06:29:37.970Z,96.71
2022-12-15T06:30:37.955Z,96.82
2022-12-15T06:31:38.045Z,96.82
2022-12-15T06:32:37.928Z,96.82
2022-12-15T06:33:37.888Z,97.03
2022-12-15T06:34:37.882Z,97.13
2022-12-15T06:35:37.853Z,97.03
2022-12-15T06:36:37.876Z,97.03
2022-12-15T06:37:37.826Z,96.92
2022-12-15T06:38:37.865Z,96.92
2022-12-15T06:39:37.797Z,96.92
2022-12-15T06:40:38.373Z,97.03
2022-12-15T06:41:37.784Z,97.13
2022-12-15T06:42:37.763Z,97.13
2022-12-15T06:43:37.783Z,97.13
2022-12-15T06:44:37.749Z,97.24
2022-12-15T06:45:37.740Z,97.13
2022-12-15T06:46:37.820Z,97.13
2022-12-15T06:47:37.731Z,97.03
2022-12-15T06:48:37.690Z,97.03
2022-12-15T06:49:37.683Z,97.24
2022-12-15T06:50:37.665Z,97.34
2022-12-15T06:51:37.655Z,97.44
2022-12-15T06:52:37.640Z,97.44
2022-12-15T06:53:37.641Z,97.44
2022-12-15T06:54:37.615Z,97.55
2022-12-15T06:55:37.588Z,97.55
2022-12-15T06:56:37.581Z,97.65
2022-12-15T06:57:37.593Z,97.55
2022-12-15T06:58:37.554Z,97.55
2022-12-15T06:59:37.545Z,97.55
2022-12-15T07:00:37.569Z,97.55
2022-12-15T07:01:37.789Z,97.44
2022-12-15T07:02:37.730Z,97.44
2022-12-15T07:03:38.162Z,97.44
2022-12-15T07:04:37.504Z,97.34
2022-12-15T07:05:37.459Z,97.34
2022-12-15T07:06:37.772Z,97.34
2022-12-15T07:07:37.437Z,97.44
2022-12-15T07:08:41.440Z,97.55
2022-12-15T07:09:37.466Z,97.65
2022-12-15T07:10:37.409Z,97.70
2022-12-15T07:11:37.379Z,97.75
2022-12-15T07:12:37.376Z,97.75
2022-12-15T07:13:37.358Z,97.75
2022-12-15T07:14:37.376Z,97.75
2022-12-15T07:15:37.319Z,97.65
2022-12-15T07:16:37.457Z,97.55
2022-12-15T07:17:37.320Z,97.44
2022-12-15T07:18:37.293Z,97.44
2022-12-15T07:19:37.273Z,97.44
2022-12-15T07:20:37.301Z,97.38
2022-12-15T07:21:37.275Z,97.34
2022-12-15T07:22:37.238Z,97.49
2022-12-15T07:23:53.231Z,97.44
2022-12-15T07:24:37.248Z,97.38
2022-12-15T07:25:37.193Z,97.34
2022-12-15T07:26:37.218Z,97.38
2022-12-15T07:27:37.173Z,97.49
2022-12-15T07:30:55.919Z,97.59
2022-12-15T07:31:56.921Z,97.44
2022-12-15T07:32:56.875Z,97.59
2022-12-15T07:33:56.910Z,97.59
2022-12-15T07:34:56.842Z,97.59
2022-12-15T07:35:56.839Z,97.49
2022-12-15T07:36:56.867Z,97.59
2022-12-15T07:37:56.813Z,97.70
2022-12-15T07:38:56.797Z,97.70
2022-12-15T07:39:56.791Z,97.80
2022-12-15T07:40:56.765Z,97.80
2022-12-15T07:41:56.795Z,97.91
2022-12-15T07:42:56.737Z,97.91
2022-12-15T07:43:56.771Z,97.91
2022-12-15T07:44:56.714Z,97.91
2022-12-15T07:45:56.730Z,97.80
2022-12-15T07:46:56.719Z,97.70
2022-12-15T07:47:56.683Z,97.80
2022-12-15T07:48:56.672Z,97.80
2022-12-15T07:49:56.664Z,97.80
2022-12-15T07:51:00.981Z,97.80
2022-12-15T07:51:56.662Z,97.80
2022-12-15T07:52:56.607Z,97.80
2022-12-15T07:53:56.603Z,97.80
2022-12-15T07:54:56.582Z,97.91
2022-12-15T07:56:06.917Z,97.91
2022-12-15T07:56:56.560Z,97.91
2022-12-15T07:57:56.552Z,97.80
2022-12-15T07:58:56.530Z,97.80
2022-12-15T07:59:56.536Z,97.80
2022-12-15T08:00:56.608Z,97.80
2022-12-15T08:01:56.812Z,97.80
2022-12-15T08:02:56.666Z,97.91
2022-12-15T08:03:56.546Z,97.80
2022-12-15T08:04:56.479Z,97.75
2022-12-15T08:06:00.400Z,97.70
2022-12-15T08:06:56.434Z,97.70
2022-12-15T08:07:56.459Z,97.80
2022-12-15T08:08:56.404Z,97.91
2022-12-15T08:09:56.394Z,98.01
2022-12-15T08:10:56.370Z,98.01
2022-12-15T08:11:56.371Z,98.01
2022-12-15T08:12:56.381Z,98.01
2022-12-15T08:14:05.728Z,98.01
2022-12-15T08:14:56.329Z,98.01
2022-12-15T08:15:56.326Z,97.91
2022-12-15T08:16:56.368Z,97.91
2022-12-15T08:17:56.305Z,97.91
2022-12-15T08:18:56.304Z,97.86
2022-12-15T08:19:58.845Z,97.91
2022-12-15T08:20:56.244Z,97.97
2022-12-15T08:21:56.254Z,97.97
2022-12-15T08:22:56.248Z,97.97
2022-12-15T08:23:56.221Z,97.97
2022-12-15T08:24:56.199Z,97.86
2022-12-15T08:25:56.223Z,97.75
2022-12-15T08:26:56.162Z,97.65
2022-12-15T08:27:56.163Z,97.65
2022-12-15T08:28:56.147Z,97.44
2022-12-15T08:29:56.133Z,97.44
2022-12-15T08:30:56.139Z,97.34
2022-12-15T08:31:56.285Z,97.34
2022-12-15T08:32:56.085Z,97.38
2022-12-15T08:33:56.082Z,97.49
2022-12-15T08:34:56.090Z,97.59
2022-12-15T08:35:57.231Z,97.59
2022-12-15T08:36:56.055Z,97.59
2022-12-15T08:37:59.791Z,97.59
2022-12-15T08:38:56.021Z,97.38
2022-12-15T08:39:56.039Z,97.38
2022-12-15T08:40:55.983Z,97.28
2022-12-15T08:41:55.985Z,97.28
2022-12-15T08:42:55.965Z,97.38
2022-12-15T08:43:55.957Z,97.38
2022-12-15T08:44:55.958Z,97.38
2022-12-15T08:45:55.958Z,97.38
2022-12-15T08:46:55.911Z,97.38
2022-12-15T08:47:55.896Z,97.28
2022-12-15T08:48:55.881Z,97.17
2022-12-15T08:49:55.915Z,97.17
2022-12-15T08:50:55.854Z,97.28
2022-12-15T08:51:55.854Z,97.28
2022-12-15T08:53:29.029Z,97.28
2022-12-15T08:53:55.828Z,97.28
2022-12-15T08:54:55.807Z,97.17
2022-12-15T08:55:55.821Z,97.17
2022-12-15T08:56:55.774Z,97.07
2022-12-15T08:57:55.776Z,97.07
2022-12-15T08:58:55.747Z,97.07
2022-12-15T08:59:55.778Z,96.97
2022-12-15T09:00:55.785Z,96.86
2022-12-15T09:01:55.860Z,96.97
2022-12-15T09:02:55.709Z,96.97
2022-12-15T09:03:55.815Z,97.07
2022-12-15T09:04:55.726Z,97.07
2022-12-15T09:05:55.663Z,97.17
2022-12-15T09:06:55.671Z,97.28
2022-12-15T09:07:55.644Z,97.38
2022-12-15T09:08:55.624Z,97.38
2022-12-15T09:09:55.620Z,97.38
2022-12-15T09:10:55.605Z,97.28
2022-12-15T09:11:55.617Z,97.28
2022-12-15T09:12:55.576Z,97.28
2022-12-15T09:13:55.600Z,97.38
2022-12-15T09:14:55.531Z,97.28
2022-12-15T09:16:11.435Z,97.17
2022-12-15T09:16:55.632Z,97.07
2022-12-15T09:17:55.516Z,97.17
2022-12-15T09:18:55.509Z,97.28
2022-12-15T09:19:55.484Z,97.28
2022-12-15T09:20:55.545Z,97.17
2022-12-15T09:21:55.486Z,97.17
2022-12-15T09:22:55.445Z,97.28
2022-12-15T09:23:55.443Z,97.28
2022-12-15T09:24:55.410Z,97.38
2022-12-15T09:25:55.437Z,97.38
2022-12-15T09:26:55.408Z,97.38
2022-12-15T09:27:55.382Z,97.38
2022-12-15T09:28:55.367Z,97.38
2022-12-15T09:29:55.365Z,97.28
2022-12-15T09:30:55.421Z,97.17
2022-12-15T09:31:55.377Z,96.97
2022-12-15T09:32:55.315Z,96.86
2022-12-15T09:33:55.383Z,96.66
2022-12-15T09:34:55.289Z,96.44
2022-12-15T09:35:55.306Z,96.34
2022-12-15T09:36:55.288Z,96.55
2022-12-15T09:37:55.254Z,96.66
2022-12-15T09:38:55.281Z,96.86
2022-12-15T09:39:55.221Z,96.97
2022-12-15T09:40:55.218Z,96.97
2022-12-15T09:41:55.197Z,97.01
2022-12-15T09:43:25.636Z,96.97
2022-12-15T09:43:56.250Z,97.28
2022-12-15T09:44:55.165Z,97.38
2022-12-15T09:45:55.198Z,97.28
2022-12-15T09:46:55.140Z,97.28
2022-12-15T09:47:55.138Z,97.28
2022-12-15T09:48:55.130Z,97.28
2022-12-15T09:49:55.114Z,97.17
2022-12-15T09:50:55.087Z,97.17
2022-12-15T09:51:55.062Z,97.17
2022-12-15T09:52:55.059Z,97.17
2022-12-15T09:53:56.398Z,96.92
2022-12-15T09:54:55.104Z,96.76
2022-12-15T09:55:55.043Z,96.50
2022-12-15T09:56:55.017Z,96.40
2022-12-15T09:57:55.011Z,96.40
2022-12-15T09:58:55.000Z,96.30
2022-12-15T09:59:54.966Z,96.30
2022-12-15T10:00:54.960Z,96.19
2022-12-15T10:01:54.965Z,96.19
2022-12-15T10:02:55.076Z,96.19
2022-12-15T10:03:55.091Z,96.09
2022-12-15T10:04:54.918Z,96.19
2022-12-15T15:03:06.436Z,96.30
2022-12-15T15:03:18.870Z,96.30
2022-12-15T15:03:24.481Z,95.56
2022-12-15T15:04:24.120Z,95.78
2022-12-15T15:05:24.183Z,95.78
2022-12-15T15:06:24.155Z,95.78
2022-12-15T15:07:24.080Z,95.88
2022-12-15T15:08:24.072Z,95.78
2022-12-15T15:09:24.101Z,95.67
2022-12-15T15:10:24.089Z,95.56
2022-12-15T15:11:24.058Z,95.56
2022-12-15T15:12:24.020Z,95.67
2022-12-15T15:13:23.984Z,95.67
2022-12-15T15:14:24.003Z,95.56
2022-12-15T15:15:23.983Z,95.56
2022-12-15T15:16:24.072Z,95.46
2022-12-15T15:17:23.947Z,95.36
2022-12-15T15:18:23.946Z,95.36
2022-12-15T15:19:23.918Z,95.36
2022-12-15T15:20:23.928Z,95.36
2022-12-15T15:21:23.923Z,95.36
2022-12-15T15:22:23.893Z,95.36
2022-12-15T15:23:23.874Z,95.36
2022-12-15T15:24:23.873Z,95.56
2022-12-15T15:25:23.850Z,95.56
2022-12-15T15:26:23.854Z,95.56
2022-12-15T15:27:23.966Z,95.67
2022-12-15T15:28:23.809Z,95.67
2022-12-15T15:29:23.788Z,95.56
2022-12-15T15:30:23.778Z,95.67
2022-12-15T15:31:23.863Z,95.78
2022-12-15T15:32:23.762Z,95.88
2022-12-15T15:33:23.741Z,95.88
2022-12-15T15:34:23.728Z,95.98
2022-12-15T15:35:24.669Z,95.98
2022-12-15T15:36:23.735Z,96.09
2022-12-15T15:37:23.696Z,96.09
2022-12-15T15:38:23.683Z,96.09
2022-12-15T15:39:23.670Z,96.19
2022-12-15T15:40:23.677Z,96.19
2022-12-15T15:41:23.633Z,96.19
2022-12-15T15:42:27.861Z,96.09
2022-12-15T15:43:23.617Z,96.13
2022-12-15T15:44:23.629Z,96.13
2022-12-15T15:45:23.569Z,96.34
2022-12-15T15:46:23.628Z,96.44
2022-12-15T15:47:23.553Z,96.55
2022-12-15T15:48:23.547Z,96.66
2022-12-15T15:49:23.554Z,96.66
2022-12-15T15:50:23.527Z,96.66
2022-12-15T15:51:23.528Z,96.66
2022-12-15T15:52:23.497Z,96.66
2022-12-15T15:53:23.548Z,96.66
2022-12-15T15:54:23.499Z,96.66
2022-12-15T15:55:23.452Z,96.66
2022-12-15T15:56:23.454Z,96.76
2022-12-15T15:57:23.429Z,96.66
2022-12-15T15:58:23.422Z,96.55
2022-12-15T15:59:23.436Z,96.44
2022-12-15T16:00:23.396Z,96.34
2022-12-15T16:01:23.594Z,96.34
2022-12-15T16:02:23.739Z,96.23
2022-12-15T16:03:23.521Z,96.13
2022-12-15T16:04:23.354Z,96.23
2022-12-15T16:05:23.326Z,96.23
2022-12-15T16:06:23.337Z,96.23
2022-12-15T16:07:23.321Z,96.13
2022-12-15T16:08:23.287Z,96.13
2022-12-15T16:09:23.264Z,96.23
2022-12-15T16:10:23.293Z,96.23
2022-12-15T16:11:23.238Z,96.23
2022-12-15T16:12:23.257Z,96.23
2022-12-15T16:13:26.219Z,96.13
2022-12-15T16:14:23.209Z,96.34
2022-12-15T16:15:23.181Z,96.34
2022-12-15T16:16:23.278Z,96.34
2022-12-15T16:17:23.197Z,96.34
2022-12-15T16:18:23.198Z,96.44
2022-12-15T16:19:23.143Z,96.44
2022-12-15T16:20:23.159Z,96.55
2022-12-15T16:21:23.110Z,96.44
2022-12-15T16:22:23.125Z,96.44
2022-12-15T16:23:23.081Z,96.34
2022-12-15T16:24:23.107Z,96.23
2022-12-15T16:25:23.060Z,96.34
2022-12-15T16:26:23.057Z,96.34
2022-12-15T16:27:23.028Z,96.55
2022-12-15T16:28:23.017Z,96.55
2022-12-15T16:29:23.043Z,96.44
2022-12-15T16:30:23.015Z,96.44
2022-12-15T16:31:23.079Z,96.34
2022-12-15T16:32:22.974Z,96.34
2022-12-15T16:33:22.951Z,96.44
2022-12-15T16:34:22.951Z,96.66
2022-12-15T16:35:22.948Z,96.66
2022-12-15T16:36:22.929Z,96.86
2022-12-15T16:37:22.901Z,96.97
2022-12-15T16:38:22.934Z,96.86
2022-12-15T16:39:22.869Z,96.86
2022-12-15T16:40:22.873Z,96.86
2022-12-15T16:41:22.847Z,96.86
2022-12-15T16:42:22.853Z,96.97
2022-12-15T16:43:22.832Z,96.97
2022-12-15T16:44:22.838Z,96.97
2022-12-15T16:45:22.796Z,96.97
2022-12-15T16:46:22.950Z,96.97
2022-12-15T16:47:22.787Z,96.97
2022-12-15T16:48:22.883Z,96.97
2022-12-15T16:49:22.757Z,96.97
2022-12-15T16:50:22.747Z,96.86
2022-12-15T16:51:22.715Z,96.76
2022-12-15T16:52:22.743Z,96.66
2022-12-15T16:53:22.700Z,96.55
2022-12-15T16:54:22.752Z,96.55
2022-12-15T16:55:22.671Z,96.55
2022-12-15T16:56:22.661Z,96.66
2022-12-15T16:57:22.638Z,96.66
2022-12-15T16:58:22.656Z,96.66
2022-12-15T16:59:37.880Z,96.66
2022-12-15T17:00:22.632Z,96.66
2022-12-15T17:01:22.770Z,96.76
2022-12-15T17:02:23.018Z,96.76
2022-12-15T17:03:22.923Z,96.55
2022-12-15T17:04:22.667Z,96.55
2022-12-15T17:05:22.570Z,96.59
2022-12-15T17:06:22.564Z,96.70
2022-12-15T17:07:22.510Z,96.80
2022-12-15T17:08:22.528Z,96.91
2022-12-15T17:09:22.475Z,96.91
2022-12-15T17:10:22.499Z,96.91
2022-12-15T17:11:22.493Z,96.91
2022-12-15T17:12:22.457Z,96.91
2022-12-15T17:13:22.444Z,96.91
2022-12-15T17:14:22.451Z,96.80
2022-12-15T17:15:22.450Z,96.80
2022-12-15T17:16:22.434Z,96.70
2022-12-15T17:17:22.464Z,96.70
2022-12-15T17:18:22.378Z,96.80
2022-12-15T17:19:22.386Z,96.80
2022-12-15T17:20:30.503Z,96.91
2022-12-15T17:21:22.365Z,96.91
2022-12-15T17:22:22.397Z,96.91
2022-12-15T17:23:22.312Z,96.91
2022-12-15T17:24:22.505Z,97.01
2022-12-15T17:25:37.496Z,97.01
2022-12-15T17:26:28.528Z,97.11
2022-12-15T17:27:22.258Z,97.22
2022-12-15T17:28:22.277Z,97.11
2022-12-15T17:29:22.351Z,96.97
2022-12-15T17:30:22.266Z,96.86
2022-12-15T17:31:22.259Z,96.70
2022-12-15T17:32:22.199Z,96.70
2022-12-15T17:33:22.173Z,96.80
2022-12-15T17:34:22.191Z,96.80
2022-12-15T17:35:22.173Z,96.80
2022-12-15T17:36:22.142Z,96.86
2022-12-15T17:37:22.138Z,96.91
2022-12-15T17:38:22.116Z,96.91
2022-12-15T17:39:22.130Z,96.91
2022-12-15T17:40:22.090Z,96.91
2022-12-15T17:41:50.341Z,96.91
2022-12-15T17:42:22.067Z,96.80
2022-12-15T17:43:22.120Z,96.80
2022-12-15T17:44:38.615Z,96.91
2022-12-15T17:45:22.055Z,97.01
2022-12-15T17:46:22.065Z,97.01
2022-12-15T17:47:21.992Z,97.11
2022-12-15T17:48:21.999Z,97.11
2022-12-15T17:49:21.966Z,97.01
2022-12-15T17:50:21.958Z,97.11